sensor_id;sensor_type;location;lat;lon;timestamp;P1;durP1;ratioP1;P2;durP2;ratioP2
5787;SDS011;2920;48.158;12.254;2024-03-02T00:02:11;35.10;;;15.85;;
5787;SDS011;2920;48.158;12.254;2024-03-02T00:04:36;47.05;;;18.33;;
5787;SDS011;2920;48.158;12.254;2024-03-02T00:07:02;37.13;;;17.60;;
5787;SDS011;2920;48.158;12.254;2024-03-02T00:09:27;38.35;;;17.95;;
5787;SDS011;2920;48.158;12.254;2024-03-02T00:11:54;36.95;;;17.05;;
5787;SDS011;2920;48.158;12.254;2024-03-02T00:14:19;37.70;;;17.60;;
5787;SDS011;2920;48.158;12.254;2024-03-02T00:16:44;42.28;;;17.30;;
5787;SDS011;2920;48.158;12.254;2024-03-02T00:19:10;40.85;;;19.75;;
5787;SDS011;2920;48.158;12.254;2024-03-02T00:21:36;50.33;;;19.92;;
5787;SDS011;2920;48.158;12.254;2024-03-02T00:24:02;47.25;;;19.98;;
5787;SDS011;2920;48.158;12.254;2024-03-02T00:26:34;48.65;;;18.98;;
5787;SDS011;2920;48.158;12.254;2024-03-02T00:28:59;57.35;;;20.40;;
5787;SDS011;2920;48.158;12.254;2024-03-02T00:31:25;52.92;;;19.67;;
5787;SDS011;2920;48.158;12.254;2024-03-02T00:33:51;46.17;;;18.75;;
5787;SDS011;2920;48.158;12.254;2024-03-02T00:36:17;46.33;;;19.85;;
5787;SDS011;2920;48.158;12.254;2024-03-02T00:38:48;44.65;;;20.10;;
5787;SDS011;2920;48.158;12.254;2024-03-02T00:41:24;46.80;;;20.33;;
5787;SDS011;2920;48.158;12.254;2024-03-02T00:46:36;44.70;;;19.27;;
5787;SDS011;2920;48.158;12.254;2024-03-02T00:49:11;42.33;;;17.88;;
5787;SDS011;2920;48.158;12.254;2024-03-02T00:51:44;49.13;;;17.42;;
5787;SDS011;2920;48.158;12.254;2024-03-02T00:54:11;41.75;;;17.75;;
5787;SDS011;2920;48.158;12.254;2024-03-02T00:56:39;45.40;;;18.90;;
5787;SDS011;2920;48.158;12.254;2024-03-02T00:59:06;39.65;;;18.10;;
5787;SDS011;2920;48.158;12.254;2024-03-02T01:01:31;43.53;;;18.77;;
5787;SDS011;2920;48.158;12.254;2024-03-02T01:03:57;41.42;;;19.85;;
5787;SDS011;2920;48.158;12.254;2024-03-02T01:06:22;41.17;;;18.13;;
5787;SDS011;2920;48.158;12.254;2024-03-02T01:08:48;44.38;;;18.60;;
5787;SDS011;2920;48.158;12.254;2024-03-02T01:11:16;39.67;;;16.83;;
5787;SDS011;2920;48.158;12.254;2024-03-02T01:13:41;39.10;;;17.73;;
5787;SDS011;2920;48.158;12.254;2024-03-02T01:16:06;38.97;;;17.23;;
5787;SDS011;2920;48.158;12.254;2024-03-02T01:18:32;34.63;;;16.52;;
5787;SDS011;2920;48.158;12.254;2024-03-02T01:20:57;32.17;;;16.65;;
5787;SDS011;2920;48.158;12.254;2024-03-02T01:23:23;34.72;;;16.95;;
5787;SDS011;2920;48.158;12.254;2024-03-02T01:25:49;35.60;;;15.93;;
5787;SDS011;2920;48.158;12.254;2024-03-02T01:28:17;33.47;;;15.75;;
5787;SDS011;2920;48.158;12.254;2024-03-02T01:30:43;30.80;;;14.57;;
5787;SDS011;2920;48.158;12.254;2024-03-02T01:33:09;26.70;;;13.75;;
5787;SDS011;2920;48.158;12.254;2024-03-02T01:35:34;30.52;;;15.57;;
5787;SDS011;2920;48.158;12.254;2024-03-02T01:38:00;38.00;;;17.10;;
5787;SDS011;2920;48.158;12.254;2024-03-02T01:40:25;29.10;;;14.73;;
5787;SDS011;2920;48.158;12.254;2024-03-02T01:42:51;30.17;;;15.65;;
5787;SDS011;2920;48.158;12.254;2024-03-02T01:45:17;26.55;;;14.30;;
5787;SDS011;2920;48.158;12.254;2024-03-02T01:47:43;26.80;;;14.00;;
5787;SDS011;2920;48.158;12.254;2024-03-02T01:50:08;24.70;;;13.52;;
5787;SDS011;2920;48.158;12.254;2024-03-02T01:52:36;24.85;;;14.57;;
5787;SDS011;2920;48.158;12.254;2024-03-02T01:55:01;29.17;;;14.45;;
5787;SDS011;2920;48.158;12.254;2024-03-02T01:57:27;27.58;;;14.43;;
5787;SDS011;2920;48.158;12.254;2024-03-02T01:59:52;28.02;;;13.50;;
5787;SDS011;2920;48.158;12.254;2024-03-02T02:02:18;26.80;;;14.63;;
5787;SDS011;2920;48.158;12.254;2024-03-02T02:04:43;22.35;;;13.55;;
5787;SDS011;2920;48.158;12.254;2024-03-02T02:07:09;25.20;;;14.45;;
5787;SDS011;2920;48.158;12.254;2024-03-02T02:09:35;26.80;;;14.52;;
5787;SDS011;2920;48.158;12.254;2024-03-02T02:12:00;26.77;;;13.32;;
5787;SDS011;2920;48.158;12.254;2024-03-02T02:14:26;26.05;;;13.82;;
5787;SDS011;2920;48.158;12.254;2024-03-02T02:16:51;23.85;;;12.15;;
5787;SDS011;2920;48.158;12.254;2024-03-02T02:19:17;24.67;;;14.00;;
5787;SDS011;2920;48.158;12.254;2024-03-02T02:21:43;27.58;;;14.15;;
5787;SDS011;2920;48.158;12.254;2024-03-02T02:24:08;27.30;;;13.52;;
5787;SDS011;2920;48.158;12.254;2024-03-02T02:26:34;26.02;;;14.35;;
5787;SDS011;2920;48.158;12.254;2024-03-02T02:28:59;24.90;;;13.65;;
5787;SDS011;2920;48.158;12.254;2024-03-02T02:31:24;43.20;;;15.27;;
5787;SDS011;2920;48.158;12.254;2024-03-02T02:33:50;27.08;;;13.80;;
5787;SDS011;2920;48.158;12.254;2024-03-02T02:36:15;32.72;;;13.80;;
5787;SDS011;2920;48.158;12.254;2024-03-02T02:38:42;23.08;;;13.15;;
5787;SDS011;2920;48.158;12.254;2024-03-02T02:41:09;22.02;;;13.57;;
5787;SDS011;2920;48.158;12.254;2024-03-02T02:43:34;23.60;;;13.07;;
5787;SDS011;2920;48.158;12.254;2024-03-02T02:45:59;25.05;;;13.48;;
5787;SDS011;2920;48.158;12.254;2024-03-02T02:48:25;23.58;;;13.13;;
5787;SDS011;2920;48.158;12.254;2024-03-02T02:50:50;23.67;;;12.15;;
5787;SDS011;2920;48.158;12.254;2024-03-02T02:53:16;19.90;;;11.77;;
5787;SDS011;2920;48.158;12.254;2024-03-02T02:55:41;23.33;;;12.10;;
5787;SDS011;2920;48.158;12.254;2024-03-02T02:58:08;24.30;;;12.63;;
5787;SDS011;2920;48.158;12.254;2024-03-02T03:00:34;22.77;;;12.82;;
5787;SDS011;2920;48.158;12.254;2024-03-02T03:02:59;19.50;;;11.10;;
5787;SDS011;2920;48.158;12.254;2024-03-02T03:05:24;20.02;;;11.48;;
5787;SDS011;2920;48.158;12.254;2024-03-02T03:07:50;21.42;;;12.13;;
5787;SDS011;2920;48.158;12.254;2024-03-02T03:10:15;18.77;;;11.13;;
5787;SDS011;2920;48.158;12.254;2024-03-02T03:12:41;23.25;;;12.73;;
5787;SDS011;2920;48.158;12.254;2024-03-02T03:15:08;18.65;;;11.13;;
5787;SDS011;2920;48.158;12.254;2024-03-02T03:17:39;16.48;;;11.00;;
5787;SDS011;2920;48.158;12.254;2024-03-02T03:20:05;20.58;;;11.70;;
5787;SDS011;2920;48.158;12.254;2024-03-02T03:22:34;20.17;;;11.63;;
5787;SDS011;2920;48.158;12.254;2024-03-02T03:25:00;18.08;;;10.73;;
5787;SDS011;2920;48.158;12.254;2024-03-02T03:27:25;21.48;;;11.10;;
5787;SDS011;2920;48.158;12.254;2024-03-02T03:29:51;22.95;;;13.05;;
5787;SDS011;2920;48.158;12.254;2024-03-02T03:32:17;21.50;;;11.50;;
5787;SDS011;2920;48.158;12.254;2024-03-02T03:34:42;21.38;;;12.18;;
5787;SDS011;2920;48.158;12.254;2024-03-02T03:37:07;20.00;;;11.90;;
5787;SDS011;2920;48.158;12.254;2024-03-02T03:39:33;21.15;;;12.40;;
5787;SDS011;2920;48.158;12.254;2024-03-02T03:41:59;21.08;;;11.32;;
5787;SDS011;2920;48.158;12.254;2024-03-02T03:44:24;22.45;;;13.60;;
5787;SDS011;2920;48.158;12.254;2024-03-02T03:46:49;23.83;;;12.23;;
5787;SDS011;2920;48.158;12.254;2024-03-02T03:49:15;17.70;;;11.57;;
5787;SDS011;2920;48.158;12.254;2024-03-02T03:51:41;20.08;;;12.15;;
5787;SDS011;2920;48.158;12.254;2024-03-02T03:54:06;24.83;;;13.25;;
5787;SDS011;2920;48.158;12.254;2024-03-02T03:56:31;21.85;;;11.40;;
5787;SDS011;2920;48.158;12.254;2024-03-02T03:58:57;22.83;;;12.73;;
5787;SDS011;2920;48.158;12.254;2024-03-02T04:01:22;21.77;;;11.68;;
5787;SDS011;2920;48.158;12.254;2024-03-02T04:03:47;19.30;;;11.60;;
5787;SDS011;2920;48.158;12.254;2024-03-02T04:06:13;23.52;;;12.85;;
5787;SDS011;2920;48.158;12.254;2024-03-02T04:08:39;20.13;;;12.40;;
5787;SDS011;2920;48.158;12.254;2024-03-02T04:11:04;20.95;;;12.75;;
5787;SDS011;2920;48.158;12.254;2024-03-02T04:13:29;23.02;;;12.13;;
5787;SDS011;2920;48.158;12.254;2024-03-02T04:15:55;16.52;;;11.00;;
5787;SDS011;2920;48.158;12.254;2024-03-02T04:18:20;18.88;;;11.40;;
5787;SDS011;2920;48.158;12.254;2024-03-02T04:20:46;26.27;;;13.38;;
5787;SDS011;2920;48.158;12.254;2024-03-02T04:23:11;22.40;;;12.13;;
5787;SDS011;2920;48.158;12.254;2024-03-02T04:25:36;21.30;;;12.25;;
5787;SDS011;2920;48.158;12.254;2024-03-02T04:28:01;23.17;;;11.73;;
5787;SDS011;2920;48.158;12.254;2024-03-02T04:30:27;23.27;;;12.60;;
5787;SDS011;2920;48.158;12.254;2024-03-02T04:32:53;19.83;;;11.38;;
5787;SDS011;2920;48.158;12.254;2024-03-02T04:35:18;20.98;;;11.23;;
5787;SDS011;2920;48.158;12.254;2024-03-02T04:37:44;19.23;;;11.68;;
5787;SDS011;2920;48.158;12.254;2024-03-02T04:40:09;26.63;;;12.25;;
5787;SDS011;2920;48.158;12.254;2024-03-02T04:42:41;24.80;;;12.75;;
5787;SDS011;2920;48.158;12.254;2024-03-02T04:45:11;21.65;;;12.18;;
5787;SDS011;2920;48.158;12.254;2024-03-02T04:47:37;22.30;;;11.70;;
5787;SDS011;2920;48.158;12.254;2024-03-02T04:50:05;23.67;;;12.57;;
5787;SDS011;2920;48.158;12.254;2024-03-02T04:52:34;20.55;;;11.90;;
5787;SDS011;2920;48.158;12.254;2024-03-02T04:55:00;21.35;;;11.52;;
5787;SDS011;2920;48.158;12.254;2024-03-02T04:57:35;22.33;;;11.68;;
5787;SDS011;2920;48.158;12.254;2024-03-02T05:00:00;21.58;;;13.02;;
5787;SDS011;2920;48.158;12.254;2024-03-02T05:02:28;20.15;;;11.50;;
5787;SDS011;2920;48.158;12.254;2024-03-02T05:04:55;22.67;;;12.40;;
5787;SDS011;2920;48.158;12.254;2024-03-02T05:07:21;20.95;;;12.45;;
5787;SDS011;2920;48.158;12.254;2024-03-02T05:09:47;22.20;;;12.20;;
5787;SDS011;2920;48.158;12.254;2024-03-02T05:12:15;20.77;;;10.60;;
5787;SDS011;2920;48.158;12.254;2024-03-02T05:14:50;19.35;;;11.70;;
5787;SDS011;2920;48.158;12.254;2024-03-02T05:17:18;17.95;;;10.95;;
5787;SDS011;2920;48.158;12.254;2024-03-02T05:19:43;21.63;;;12.45;;
5787;SDS011;2920;48.158;12.254;2024-03-02T05:22:09;19.98;;;11.82;;
5787;SDS011;2920;48.158;12.254;2024-03-02T05:24:34;21.08;;;10.88;;
5787;SDS011;2920;48.158;12.254;2024-03-02T05:27:02;15.88;;;10.32;;
5787;SDS011;2920;48.158;12.254;2024-03-02T05:29:38;17.25;;;10.07;;
5787;SDS011;2920;48.158;12.254;2024-03-02T05:32:08;22.10;;;12.85;;
5787;SDS011;2920;48.158;12.254;2024-03-02T05:34:36;22.08;;;11.90;;
5787;SDS011;2920;48.158;12.254;2024-03-02T05:37:02;22.45;;;11.98;;
5787;SDS011;2920;48.158;12.254;2024-03-02T05:39:27;20.33;;;12.48;;
5787;SDS011;2920;48.158;12.254;2024-03-02T05:41:53;19.20;;;11.30;;
5787;SDS011;2920;48.158;12.254;2024-03-02T05:44:18;21.95;;;12.48;;
5787;SDS011;2920;48.158;12.254;2024-03-02T05:46:44;19.20;;;10.98;;
5787;SDS011;2920;48.158;12.254;2024-03-02T05:49:10;20.50;;;11.23;;
5787;SDS011;2920;48.158;12.254;2024-03-02T05:51:36;22.30;;;12.00;;
5787;SDS011;2920;48.158;12.254;2024-03-02T05:54:04;22.17;;;11.57;;
5787;SDS011;2920;48.158;12.254;2024-03-02T05:56:31;21.55;;;11.35;;
5787;SDS011;2920;48.158;12.254;2024-03-02T05:58:59;20.40;;;11.80;;
5787;SDS011;2920;48.158;12.254;2024-03-02T06:01:46;19.60;;;11.63;;
5787;SDS011;2920;48.158;12.254;2024-03-02T06:04:12;20.15;;;10.88;;
5787;SDS011;2920;48.158;12.254;2024-03-02T06:06:41;21.42;;;11.02;;
5787;SDS011;2920;48.158;12.254;2024-03-02T06:09:07;23.20;;;12.23;;
5787;SDS011;2920;48.158;12.254;2024-03-02T06:11:37;19.17;;;10.73;;
5787;SDS011;2920;48.158;12.254;2024-03-02T06:14:04;19.45;;;11.13;;
5787;SDS011;2920;48.158;12.254;2024-03-02T06:16:35;21.98;;;11.75;;
5787;SDS011;2920;48.158;12.254;2024-03-02T06:19:06;19.90;;;11.48;;
5787;SDS011;2920;48.158;12.254;2024-03-02T06:21:36;20.42;;;12.13;;
5787;SDS011;2920;48.158;12.254;2024-03-02T06:24:02;21.30;;;11.90;;
5787;SDS011;2920;48.158;12.254;2024-03-02T06:26:29;17.35;;;11.27;;
5787;SDS011;2920;48.158;12.254;2024-03-02T06:28:56;20.30;;;11.73;;
5787;SDS011;2920;48.158;12.254;2024-03-02T06:31:22;16.85;;;10.95;;
5787;SDS011;2920;48.158;12.254;2024-03-02T06:33:48;17.83;;;10.80;;
5787;SDS011;2920;48.158;12.254;2024-03-02T06:36:13;17.33;;;11.23;;
5787;SDS011;2920;48.158;12.254;2024-03-02T06:38:42;20.67;;;11.50;;
5787;SDS011;2920;48.158;12.254;2024-03-02T06:41:07;18.92;;;10.80;;
5787;SDS011;2920;48.158;12.254;2024-03-02T06:43:32;19.13;;;11.60;;
5787;SDS011;2920;48.158;12.254;2024-03-02T06:45:58;18.05;;;11.30;;
5787;SDS011;2920;48.158;12.254;2024-03-02T06:48:23;21.15;;;11.45;;
5787;SDS011;2920;48.158;12.254;2024-03-02T06:50:49;19.42;;;10.35;;
5787;SDS011;2920;48.158;12.254;2024-03-02T06:53:15;20.58;;;11.95;;
5787;SDS011;2920;48.158;12.254;2024-03-02T06:55:43;21.40;;;11.02;;
5787;SDS011;2920;48.158;12.254;2024-03-02T06:58:09;19.65;;;10.73;;
5787;SDS011;2920;48.158;12.254;2024-03-02T07:00:35;17.60;;;10.50;;
5787;SDS011;2920;48.158;12.254;2024-03-02T07:03:00;23.27;;;11.30;;
5787;SDS011;2920;48.158;12.254;2024-03-02T07:05:25;17.13;;;10.50;;
5787;SDS011;2920;48.158;12.254;2024-03-02T07:07:51;23.58;;;12.13;;
5787;SDS011;2920;48.158;12.254;2024-03-02T07:10:16;19.70;;;12.10;;
5787;SDS011;2920;48.158;12.254;2024-03-02T07:12:42;18.50;;;11.93;;
5787;SDS011;2920;48.158;12.254;2024-03-02T07:15:07;22.20;;;12.90;;
5787;SDS011;2920;48.158;12.254;2024-03-02T07:17:43;18.90;;;11.27;;
5787;SDS011;2920;48.158;12.254;2024-03-02T07:20:09;21.45;;;11.68;;
5787;SDS011;2920;48.158;12.254;2024-03-02T07:22:34;22.35;;;11.35;;
5787;SDS011;2920;48.158;12.254;2024-03-02T07:25:00;22.25;;;12.30;;
5787;SDS011;2920;48.158;12.254;2024-03-02T07:27:25;19.60;;;11.45;;
5787;SDS011;2920;48.158;12.254;2024-03-02T07:29:50;28.25;;;14.15;;
5787;SDS011;2920;48.158;12.254;2024-03-02T07:32:16;19.42;;;12.27;;
5787;SDS011;2920;48.158;12.254;2024-03-02T07:34:41;20.45;;;11.55;;
5787;SDS011;2920;48.158;12.254;2024-03-02T07:37:06;19.52;;;11.63;;
5787;SDS011;2920;48.158;12.254;2024-03-02T07:39:32;23.83;;;11.98;;
5787;SDS011;2920;48.158;12.254;2024-03-02T07:41:57;20.15;;;11.95;;
5787;SDS011;2920;48.158;12.254;2024-03-02T07:44:22;20.02;;;11.65;;
5787;SDS011;2920;48.158;12.254;2024-03-02T07:46:48;21.98;;;12.77;;
5787;SDS011;2920;48.158;12.254;2024-03-02T07:49:16;50.65;;;13.60;;
5787;SDS011;2920;48.158;12.254;2024-03-02T07:51:42;20.98;;;12.45;;
5787;SDS011;2920;48.158;12.254;2024-03-02T07:54:08;21.67;;;12.88;;
5787;SDS011;2920;48.158;12.254;2024-03-02T07:56:35;17.63;;;11.13;;
5787;SDS011;2920;48.158;12.254;2024-03-02T07:59:12;22.20;;;11.32;;
5787;SDS011;2920;48.158;12.254;2024-03-02T08:01:40;18.35;;;10.98;;
5787;SDS011;2920;48.158;12.254;2024-03-02T08:04:06;18.63;;;10.55;;
5787;SDS011;2920;48.158;12.254;2024-03-02T08:06:40;18.05;;;11.10;;
5787;SDS011;2920;48.158;12.254;2024-03-02T08:09:08;19.05;;;10.63;;
5787;SDS011;2920;48.158;12.254;2024-03-02T08:11:36;18.20;;;10.40;;
5787;SDS011;2920;48.158;12.254;2024-03-02T08:14:07;17.77;;;10.05;;
5787;SDS011;2920;48.158;12.254;2024-03-02T08:16:35;26.45;;;11.95;;
5787;SDS011;2920;48.158;12.254;2024-03-02T08:19:03;17.00;;;10.80;;
5787;SDS011;2920;48.158;12.254;2024-03-02T08:21:29;16.90;;;11.30;;
5787;SDS011;2920;48.158;12.254;2024-03-02T08:24:02;17.48;;;10.07;;
5787;SDS011;2920;48.158;12.254;2024-03-02T08:26:27;21.55;;;11.18;;
5787;SDS011;2920;48.158;12.254;2024-03-02T08:28:57;25.17;;;11.80;;
5787;SDS011;2920;48.158;12.254;2024-03-02T08:31:23;19.55;;;11.23;;
5787;SDS011;2920;48.158;12.254;2024-03-02T08:33:53;23.55;;;12.00;;
5787;SDS011;2920;48.158;12.254;2024-03-02T08:36:19;21.05;;;11.48;;
5787;SDS011;2920;48.158;12.254;2024-03-02T08:38:45;22.02;;;11.57;;
5787;SDS011;2920;48.158;12.254;2024-03-02T08:41:10;21.65;;;11.15;;
5787;SDS011;2920;48.158;12.254;2024-03-02T08:43:41;24.85;;;12.52;;
5787;SDS011;2920;48.158;12.254;2024-03-02T08:46:11;20.45;;;11.65;;
5787;SDS011;2920;48.158;12.254;2024-03-02T08:48:37;22.30;;;11.52;;
5787;SDS011;2920;48.158;12.254;2024-03-02T08:51:03;20.42;;;12.35;;
5787;SDS011;2920;48.158;12.254;2024-03-02T08:53:33;25.33;;;12.32;;
5787;SDS011;2920;48.158;12.254;2024-03-02T08:56:03;20.90;;;12.60;;
5787;SDS011;2920;48.158;12.254;2024-03-02T08:58:34;24.83;;;12.27;;
5787;SDS011;2920;48.158;12.254;2024-03-02T09:01:02;27.98;;;12.82;;
5787;SDS011;2920;48.158;12.254;2024-03-02T09:03:32;25.63;;;13.07;;
5787;SDS011;2920;48.158;12.254;2024-03-02T09:06:02;26.48;;;13.60;;
5787;SDS011;2920;48.158;12.254;2024-03-02T09:08:33;25.90;;;12.70;;
5787;SDS011;2920;48.158;12.254;2024-03-02T09:11:07;29.35;;;13.45;;
5787;SDS011;2920;48.158;12.254;2024-03-02T09:13:32;24.67;;;12.88;;
5787;SDS011;2920;48.158;12.254;2024-03-02T09:15:58;34.75;;;14.90;;
5787;SDS011;2920;48.158;12.254;2024-03-02T09:18:26;28.90;;;14.18;;
5787;SDS011;2920;48.158;12.254;2024-03-02T09:20:55;30.73;;;15.43;;
5787;SDS011;2920;48.158;12.254;2024-03-02T09:23:27;27.60;;;13.77;;
5787;SDS011;2920;48.158;12.254;2024-03-02T09:25:53;28.88;;;14.95;;
5787;SDS011;2920;48.158;12.254;2024-03-02T09:28:21;29.90;;;15.10;;
5787;SDS011;2920;48.158;12.254;2024-03-02T09:30:51;27.80;;;14.30;;
5787;SDS011;2920;48.158;12.254;2024-03-02T09:33:19;30.23;;;13.25;;
5787;SDS011;2920;48.158;12.254;2024-03-02T09:35:45;34.05;;;16.60;;
5787;SDS011;2920;48.158;12.254;2024-03-02T09:38:13;31.38;;;15.15;;
5787;SDS011;2920;48.158;12.254;2024-03-02T09:40:38;33.92;;;15.80;;
5787;SDS011;2920;48.158;12.254;2024-03-02T09:43:04;30.00;;;14.85;;
5787;SDS011;2920;48.158;12.254;2024-03-02T09:45:30;27.85;;;13.90;;
5787;SDS011;2920;48.158;12.254;2024-03-02T09:47:55;35.35;;;15.45;;
5787;SDS011;2920;48.158;12.254;2024-03-02T09:50:20;40.22;;;16.02;;
5787;SDS011;2920;48.158;12.254;2024-03-02T09:52:49;35.97;;;15.82;;
5787;SDS011;2920;48.158;12.254;2024-03-02T09:55:15;37.58;;;17.10;;
5787;SDS011;2920;48.158;12.254;2024-03-02T09:57:40;34.25;;;15.70;;
5787;SDS011;2920;48.158;12.254;2024-03-02T10:00:07;35.00;;;17.05;;
5787;SDS011;2920;48.158;12.254;2024-03-02T10:02:33;34.45;;;17.45;;
5787;SDS011;2920;48.158;12.254;2024-03-02T10:04:58;36.20;;;16.85;;
5787;SDS011;2920;48.158;12.254;2024-03-02T10:07:24;32.50;;;16.05;;
5787;SDS011;2920;48.158;12.254;2024-03-02T10:09:49;29.35;;;15.05;;
5787;SDS011;2920;48.158;12.254;2024-03-02T10:12:15;39.42;;;17.05;;
5787;SDS011;2920;48.158;12.254;2024-03-02T10:14:41;33.45;;;17.15;;
5787;SDS011;2920;48.158;12.254;2024-03-02T10:17:08;32.85;;;15.60;;
5787;SDS011;2920;48.158;12.254;2024-03-02T10:19:34;33.08;;;16.15;;
5787;SDS011;2920;48.158;12.254;2024-03-02T10:22:00;35.72;;;14.18;;
5787;SDS011;2920;48.158;12.254;2024-03-02T10:24:27;33.13;;;15.00;;
5787;SDS011;2920;48.158;12.254;2024-03-02T10:26:53;33.20;;;15.98;;
5787;SDS011;2920;48.158;12.254;2024-03-02T10:29:19;27.83;;;15.02;;
5787;SDS011;2920;48.158;12.254;2024-03-02T10:31:45;31.10;;;14.73;;
5787;SDS011;2920;48.158;12.254;2024-03-02T10:34:11;32.75;;;15.70;;
5787;SDS011;2920;48.158;12.254;2024-03-02T10:36:37;31.17;;;16.02;;
5787;SDS011;2920;48.158;12.254;2024-03-02T10:39:07;27.70;;;14.55;;
5787;SDS011;2920;48.158;12.254;2024-03-02T10:41:39;31.98;;;17.30;;
5787;SDS011;2920;48.158;12.254;2024-03-02T10:44:10;26.48;;;13.82;;
5787;SDS011;2920;48.158;12.254;2024-03-02T10:46:43;29.80;;;14.48;;
5787;SDS011;2920;48.158;12.254;2024-03-02T10:49:21;30.20;;;15.05;;
5787;SDS011;2920;48.158;12.254;2024-03-02T10:51:59;30.50;;;15.05;;
5787;SDS011;2920;48.158;12.254;2024-03-02T10:54:25;31.80;;;15.48;;
5787;SDS011;2920;48.158;12.254;2024-03-02T10:57:01;31.92;;;15.75;;
5787;SDS011;2920;48.158;12.254;2024-03-02T10:59:27;40.67;;;17.48;;
5787;SDS011;2920;48.158;12.254;2024-03-02T11:01:57;33.45;;;16.42;;
5787;SDS011;2920;48.158;12.254;2024-03-02T11:04:25;35.80;;;18.35;;
5787;SDS011;2920;48.158;12.254;2024-03-02T11:06:54;36.15;;;17.40;;
5787;SDS011;2920;48.158;12.254;2024-03-02T11:09:25;36.25;;;19.20;;
5787;SDS011;2920;48.158;12.254;2024-03-02T11:14:51;37.97;;;20.23;;
5787;SDS011;2920;48.158;12.254;2024-03-02T11:17:17;43.45;;;21.35;;
5787;SDS011;2920;48.158;12.254;2024-03-02T11:19:43;41.65;;;20.35;;
5787;SDS011;2920;48.158;12.254;2024-03-02T11:22:12;41.72;;;19.17;;
5787;SDS011;2920;48.158;12.254;2024-03-02T11:24:37;37.85;;;20.00;;
5787;SDS011;2920;48.158;12.254;2024-03-02T11:27:06;42.30;;;21.95;;
5787;SDS011;2920;48.158;12.254;2024-03-02T11:29:44;40.30;;;19.52;;
5787;SDS011;2920;48.158;12.254;2024-03-02T11:32:22;39.63;;;18.42;;
5787;SDS011;2920;48.158;12.254;2024-03-02T11:34:53;41.38;;;19.45;;
5787;SDS011;2920;48.158;12.254;2024-03-02T11:37:19;39.20;;;19.25;;
5787;SDS011;2920;48.158;12.254;2024-03-02T11:39:46;43.47;;;20.67;;
5787;SDS011;2920;48.158;12.254;2024-03-02T11:42:14;39.03;;;20.40;;
5787;SDS011;2920;48.158;12.254;2024-03-02T11:44:47;35.63;;;19.30;;
5787;SDS011;2920;48.158;12.254;2024-03-02T11:47:16;39.25;;;19.98;;
5787;SDS011;2920;48.158;12.254;2024-03-02T11:49:46;38.47;;;18.00;;
5787;SDS011;2920;48.158;12.254;2024-03-02T11:54:43;37.17;;;17.40;;
5787;SDS011;2920;48.158;12.254;2024-03-02T11:57:16;36.85;;;18.20;;
5787;SDS011;2920;48.158;12.254;2024-03-02T11:59:46;34.20;;;16.88;;
5787;SDS011;2920;48.158;12.254;2024-03-02T12:02:21;34.17;;;17.85;;
5787;SDS011;2920;48.158;12.254;2024-03-02T12:04:47;32.25;;;17.83;;
5787;SDS011;2920;48.158;12.254;2024-03-02T12:07:20;33.85;;;18.30;;
5787;SDS011;2920;48.158;12.254;2024-03-02T12:09:47;33.95;;;17.20;;
5787;SDS011;2920;48.158;12.254;2024-03-02T12:12:13;32.50;;;17.90;;
5787;SDS011;2920;48.158;12.254;2024-03-02T12:14:49;35.30;;;18.52;;
5787;SDS011;2920;48.158;12.254;2024-03-02T12:17:17;37.17;;;18.75;;
5787;SDS011;2920;48.158;12.254;2024-03-02T12:19:43;29.48;;;16.98;;
5787;SDS011;2920;48.158;12.254;2024-03-02T12:22:13;31.90;;;15.88;;
5787;SDS011;2920;48.158;12.254;2024-03-02T12:24:40;31.83;;;17.45;;
5787;SDS011;2920;48.158;12.254;2024-03-02T12:27:06;27.45;;;16.65;;
5787;SDS011;2920;48.158;12.254;2024-03-02T12:29:32;33.92;;;18.02;;
5787;SDS011;2920;48.158;12.254;2024-03-02T12:31:59;33.33;;;16.40;;
5787;SDS011;2920;48.158;12.254;2024-03-02T12:34:36;33.90;;;16.67;;
5787;SDS011;2920;48.158;12.254;2024-03-02T12:37:03;28.55;;;16.13;;
5787;SDS011;2920;48.158;12.254;2024-03-02T12:39:29;28.42;;;14.93;;
5787;SDS011;2920;48.158;12.254;2024-03-02T12:41:55;30.17;;;15.75;;
5787;SDS011;2920;48.158;12.254;2024-03-02T12:44:30;26.48;;;15.85;;
5787;SDS011;2920;48.158;12.254;2024-03-02T12:46:55;28.90;;;16.23;;
5787;SDS011;2920;48.158;12.254;2024-03-02T12:49:26;28.02;;;15.90;;
5787;SDS011;2920;48.158;12.254;2024-03-02T12:54:21;28.80;;;15.35;;
5787;SDS011;2920;48.158;12.254;2024-03-02T12:56:52;27.10;;;14.95;;
5787;SDS011;2920;48.158;12.254;2024-03-02T12:59:23;26.40;;;15.57;;
5787;SDS011;2920;48.158;12.254;2024-03-02T13:01:59;25.73;;;14.20;;
5787;SDS011;2920;48.158;12.254;2024-03-02T13:04:29;25.80;;;14.20;;
5787;SDS011;2920;48.158;12.254;2024-03-02T13:06:58;33.15;;;16.13;;
5787;SDS011;2920;48.158;12.254;2024-03-02T13:09:27;23.55;;;15.20;;
5787;SDS011;2920;48.158;12.254;2024-03-02T13:11:55;28.75;;;16.35;;
5787;SDS011;2920;48.158;12.254;2024-03-02T13:14:33;26.48;;;16.25;;
5787;SDS011;2920;48.158;12.254;2024-03-02T13:17:04;28.33;;;15.75;;
5787;SDS011;2920;48.158;12.254;2024-03-02T13:19:30;27.50;;;15.43;;
5787;SDS011;2920;48.158;12.254;2024-03-02T13:22:05;23.63;;;14.70;;
5787;SDS011;2920;48.158;12.254;2024-03-02T13:24:38;26.05;;;15.02;;
5787;SDS011;2920;48.158;12.254;2024-03-02T13:27:09;26.05;;;15.38;;
5787;SDS011;2920;48.158;12.254;2024-03-02T13:29:38;26.98;;;15.43;;
5787;SDS011;2920;48.158;12.254;2024-03-02T13:32:06;27.17;;;17.33;;
5787;SDS011;2920;48.158;12.254;2024-03-02T13:34:34;27.85;;;16.35;;
5787;SDS011;2920;48.158;12.254;2024-03-02T13:37:01;25.15;;;15.90;;
5787;SDS011;2920;48.158;12.254;2024-03-02T13:39:30;24.00;;;15.77;;
5787;SDS011;2920;48.158;12.254;2024-03-02T13:41:57;24.42;;;15.23;;
5787;SDS011;2920;48.158;12.254;2024-03-02T13:44:51;24.90;;;14.82;;
5787;SDS011;2920;48.158;12.254;2024-03-02T13:47:17;27.73;;;15.20;;
5787;SDS011;2920;48.158;12.254;2024-03-02T13:49:49;24.67;;;14.23;;
5787;SDS011;2920;48.158;12.254;2024-03-02T13:52:17;27.15;;;14.73;;
5787;SDS011;2920;48.158;12.254;2024-03-02T13:54:46;25.33;;;14.25;;
5787;SDS011;2920;48.158;12.254;2024-03-02T13:57:15;21.48;;;13.00;;
5787;SDS011;2920;48.158;12.254;2024-03-02T13:59:44;22.60;;;12.45;;
5787;SDS011;2920;48.158;12.254;2024-03-02T14:02:19;24.60;;;14.40;;
5787;SDS011;2920;48.158;12.254;2024-03-02T14:04:48;24.38;;;13.40;;
5787;SDS011;2920;48.158;12.254;2024-03-02T14:07:17;23.73;;;12.80;;
5787;SDS011;2920;48.158;12.254;2024-03-02T14:09:47;27.45;;;14.18;;
5787;SDS011;2920;48.158;12.254;2024-03-02T14:12:12;22.88;;;12.02;;
5787;SDS011;2920;48.158;12.254;2024-03-02T14:14:41;19.88;;;11.10;;
5787;SDS011;2920;48.158;12.254;2024-03-02T14:17:11;20.40;;;11.90;;
5787;SDS011;2920;48.158;12.254;2024-03-02T14:19:40;22.98;;;11.50;;
5787;SDS011;2920;48.158;12.254;2024-03-02T14:22:08;22.48;;;13.07;;
5787;SDS011;2920;48.158;12.254;2024-03-02T14:24:38;22.80;;;12.40;;
5787;SDS011;2920;48.158;12.254;2024-03-02T14:29:33;21.88;;;12.18;;
5787;SDS011;2920;48.158;12.254;2024-03-02T14:32:02;21.45;;;13.30;;
5787;SDS011;2920;48.158;12.254;2024-03-02T14:34:28;27.15;;;14.00;;
5787;SDS011;2920;48.158;12.254;2024-03-02T14:36:56;23.40;;;13.02;;
5787;SDS011;2920;48.158;12.254;2024-03-02T14:39:25;25.48;;;12.50;;
5787;SDS011;2920;48.158;12.254;2024-03-02T14:41:54;27.90;;;12.93;;
5787;SDS011;2920;48.158;12.254;2024-03-02T14:44:25;25.83;;;13.10;;
5787;SDS011;2920;48.158;12.254;2024-03-02T14:46:53;26.92;;;13.60;;
5787;SDS011;2920;48.158;12.254;2024-03-02T14:49:22;27.15;;;13.07;;